This is the latest recevied weather packets stored in our database for station/object JE7UPL-13. If no packets are shown the sender has not sent any weather packets the latest 10 day(s).
| Time | Temp. | Humidity | Pressure | Rain* | Wind** | Luminosity | Snow |
|---|---|---|---|---|---|---|---|
| 1777855505 | 20° C | 66% | 988.4 hPa | 0 mm | - | - | - |
| 1777854606 | 20.56° C | 63% | 988.5 hPa | 0 mm | - | - | - |
| 1777853705 | 20.56° C | 67% | 988.1 hPa | 0 mm | - | - | - |
| 1777852805 | 20.56° C | 68% | 988.4 hPa | 0 mm | - | - | - |
| 1777851906 | 18.33° C | 88% | 988.2 hPa | 0 mm | - | - | - |
| 1777851005 | 13.89° C | 92% | 989 hPa | 0 mm | - | - | - |
| 1777850105 | 13.89° C | 93% | 989 hPa | 0 mm | - | - | - |
| 1777849206 | 14.44° C | 93% | 989.1 hPa | 0 mm | - | - | - |
| 1777848306 | 15° C | 95% | 989.2 hPa | 0 mm | - | - | - |
| 1777847407 | 15° C | 96% | 989.2 hPa | 0 mm | - | - | - |
| 1777846505 | 13.33° C | 98% | 989.3 hPa | 0 mm | - | - | - |
| 1777845606 | 12.78° C | 97% | 989.7 hPa | 0 mm | - | - | - |
| 1777844706 | 12.22° C | 97% | 990.4 hPa | 0 mm | - | - | - |
| 1777843805 | 12.22° C | 97% | 990.4 hPa | 0 mm | - | - | - |
| 1777842905 | 12.22° C | 97% | 990.5 hPa | 0 mm | - | - | - |
| 1777842006 | 11.67° C | 98% | 991.2 hPa | 0 mm | - | - | - |
| 1777841105 | 11.67° C | 98% | 991.1 hPa | 0 mm | - | - | - |
| 1777840206 | 11.67° C | 98% | 991.1 hPa | 0 mm | - | - | - |
| 1777839305 | 11.67° C | 98% | 991.4 hPa | 0 mm | - | - | - |
| 1777838405 | 11.67° C | 98% | 991.3 hPa | 0 mm | - | - | - |
| 1777837505 | 11.67° C | 98% | 991.3 hPa | 0 mm | - | - | - |
| 1777836606 | 11.67° C | 98% | 991.7 hPa | 0 mm | - | - | - |
| 1777835705 | 11.67° C | 98% | 991.7 hPa | 0 mm | - | - | - |
| 1777834806 | 11.67° C | 98% | 992 hPa | 0 mm | - | - | - |
| 1777833905 | 11.67° C | 98% | 992.3 hPa | 0 mm | - | - | - |
* Rain latest hour (hover to see other rain measurements)
** Current wind speed in m/s (hover to see current wind gust speed)